createdAt,value
2022-11-17T00:01:53.117Z,6.00
2022-11-17T00:04:22.723Z,5.95
2022-11-17T00:06:51.164Z,5.80
2022-11-17T00:09:19.368Z,5.28
2022-11-17T00:12:06.088Z,4.80
2022-11-17T00:14:36.649Z,4.95
2022-11-17T00:17:07.102Z,4.90
2022-11-17T00:19:54.479Z,5.35
2022-11-17T00:22:23.166Z,4.50
2022-11-17T00:24:51.433Z,4.10
2022-11-17T00:27:19.921Z,4.20
2022-11-17T00:29:47.910Z,4.97
2022-11-17T00:32:34.910Z,5.65
2022-11-17T00:35:05.656Z,4.10
2022-11-17T00:37:36.705Z,3.92
2022-11-17T00:40:05.701Z,3.92
2022-11-17T00:42:34.225Z,4.65
2022-11-17T00:45:02.337Z,6.20
2022-11-17T00:47:30.868Z,5.53
2022-11-17T00:49:58.959Z,3.95
2022-11-17T00:52:28.698Z,4.18
2022-11-17T00:54:56.797Z,4.97
2022-11-17T00:57:25.261Z,4.43
2022-11-17T00:59:53.341Z,4.57
2022-11-17T01:02:21.802Z,3.22
2022-11-17T01:04:49.876Z,2.70
2022-11-17T01:07:18.281Z,2.65
2022-11-17T01:09:47.796Z,2.83
2022-11-17T01:12:16.344Z,3.00
2022-11-17T01:14:44.630Z,2.83
2022-11-17T01:17:13.141Z,2.58
2022-11-17T01:19:41.282Z,1.90
2022-11-17T01:22:09.736Z,4.35
2022-11-17T01:24:37.825Z,2.10
2022-11-17T01:27:07.770Z,1.67
2022-11-17T01:29:35.971Z,1.65
2022-11-17T01:32:04.392Z,1.50
2022-11-17T01:34:32.671Z,1.30
2022-11-17T01:37:18.496Z,1.40
2022-11-17T01:39:46.792Z,1.30
2022-11-17T01:42:18.409Z,1.30
2022-11-17T01:45:05.333Z,2.05
2022-11-17T01:47:37.859Z,1.50
2022-11-17T01:50:09.739Z,2.38
2022-11-17T01:52:39.265Z,1.80
2022-11-17T01:55:08.662Z,2.05
2022-11-17T01:57:42.021Z,2.00
2022-11-17T02:00:12.621Z,1.70
2022-11-17T02:02:42.167Z,1.60
2022-11-17T02:05:19.880Z,2.15
2022-11-17T02:07:48.628Z,2.10
2022-11-17T02:10:17.167Z,2.20
2022-11-17T02:12:47.125Z,1.73
2022-11-17T02:15:15.278Z,1.90
2022-11-17T02:17:44.425Z,2.20
2022-11-17T02:20:15.103Z,1.65
2022-11-17T02:22:57.536Z,1.95
2022-11-17T02:25:39.335Z,2.08
2022-11-17T02:28:14.583Z,2.08
2022-11-17T02:30:49.157Z,2.05
2022-11-17T02:33:27.135Z,1.92
2022-11-17T02:36:00.108Z,2.10
2022-11-17T02:38:32.777Z,1.98
2022-11-17T02:41:06.539Z,1.80
2022-11-17T02:43:58.150Z,2.10
2022-11-17T02:46:26.987Z,1.92
2022-11-17T02:48:57.952Z,2.30
2022-11-17T02:51:26.414Z,2.38
2022-11-17T02:53:56.214Z,2.00
2022-11-17T02:56:24.298Z,2.35
2022-11-17T02:58:56.179Z,2.10
2022-11-17T03:01:37.117Z,1.90
2022-11-17T03:04:23.084Z,2.17
2022-11-17T03:06:58.713Z,2.20
2022-11-17T03:09:34.178Z,2.78
2022-11-17T03:12:07.876Z,2.58
2022-11-17T03:14:43.901Z,2.42
2022-11-17T03:17:15.232Z,2.20
2022-11-17T03:19:46.280Z,2.05
2022-11-17T03:22:17.878Z,2.00
2022-11-17T03:24:49.276Z,1.95
2022-11-17T03:27:20.745Z,1.90
2022-11-17T03:29:52.274Z,2.10
2022-11-17T03:32:20.565Z,1.85
2022-11-17T03:34:52.111Z,2.13
2022-11-17T03:37:20.993Z,2.90
2022-11-17T03:39:51.935Z,3.35
2022-11-17T03:42:23.515Z,3.08
2022-11-17T03:44:57.088Z,3.40
2022-11-17T03:47:27.117Z,2.33
2022-11-17T03:49:59.677Z,2.10
2022-11-17T03:52:29.842Z,2.90
2022-11-17T03:54:58.316Z,2.30
2022-11-17T03:57:30.557Z,2.53
2022-11-17T04:00:02.334Z,3.08
2022-11-17T04:02:30.490Z,2.55
2022-11-17T04:05:07.515Z,2.22
2022-11-17T04:07:37.343Z,1.83
2022-11-17T04:10:06.882Z,1.70
2022-11-17T04:12:52.394Z,1.88
2022-11-17T04:15:40.298Z,2.08
2022-11-17T04:18:08.384Z,1.88
2022-11-17T04:20:37.023Z,2.20
2022-11-17T04:23:08.463Z,2.70
2022-11-17T04:25:54.626Z,1.95
2022-11-17T04:28:38.570Z,1.90
2022-11-17T04:31:10.800Z,1.63
2022-11-17T04:33:40.230Z,1.60
2022-11-17T04:36:09.459Z,1.92
2022-11-17T04:38:37.589Z,2.10
2022-11-17T04:41:25.517Z,2.42
2022-11-17T04:43:54.576Z,1.67
2022-11-17T04:46:24.809Z,1.95
2022-11-17T04:48:53.926Z,1.95
2022-11-17T04:51:22.668Z,2.47
2022-11-17T04:53:51.023Z,2.33
2022-11-17T04:56:20.489Z,2.47
2022-11-17T04:58:48.916Z,2.38
2022-11-17T05:01:18.209Z,4.00
2022-11-17T05:03:49.408Z,3.13
2022-11-17T05:06:19.999Z,2.80
2022-11-17T05:08:48.680Z,2.38
2022-11-17T05:11:35.889Z,2.22
2022-11-17T05:14:04.274Z,3.50
2022-11-17T05:16:50.477Z,2.65
2022-11-17T05:19:21.402Z,2.00
2022-11-17T05:21:50.548Z,2.13
2022-11-17T05:24:18.230Z,2.92
2022-11-17T05:26:48.031Z,2.25
2022-11-17T05:29:17.502Z,1.95
2022-11-17T05:31:46.604Z,1.90
2022-11-17T05:34:17.421Z,2.33
2022-11-17T05:36:47.615Z,2.10
2022-11-17T05:39:16.438Z,1.90
2022-11-17T05:41:44.822Z,1.25
2022-11-17T05:44:13.050Z,2.15
2022-11-17T05:46:41.315Z,2.13
2022-11-17T05:49:09.585Z,3.50
2022-11-17T05:51:38.718Z,2.50
2022-11-17T05:54:08.344Z,3.50
2022-11-17T05:56:40.439Z,2.50
2022-11-17T05:59:17.412Z,3.63
2022-11-17T06:01:49.825Z,3.40
2022-11-17T06:04:19.702Z,3.15
2022-11-17T06:06:49.401Z,3.00
2022-11-17T06:09:19.016Z,2.40
2022-11-17T06:11:47.378Z,3.28
2022-11-17T06:14:15.722Z,2.75
2022-11-17T06:16:46.045Z,2.20
2022-11-17T06:19:18.117Z,1.90
2022-11-17T06:22:10.736Z,2.00
2022-11-17T06:24:36.119Z,2.50
2022-11-17T06:27:05.520Z,3.38
2022-11-17T06:29:36.112Z,3.20
2022-11-17T06:32:06.902Z,3.28
2022-11-17T06:34:35.129Z,3.00
2022-11-17T06:37:03.628Z,3.08
2022-11-17T06:39:31.847Z,2.95
2022-11-17T06:42:01.761Z,3.03
2022-11-17T06:44:29.863Z,3.40
2022-11-17T06:46:58.227Z,2.13
2022-11-17T06:49:26.415Z,3.40
2022-11-17T06:51:55.406Z,2.33
2022-11-17T06:54:23.545Z,2.15
2022-11-17T06:56:52.684Z,1.45
2022-11-17T06:59:22.140Z,1.50
2022-11-17T07:01:50.627Z,1.55
2022-11-17T07:04:18.704Z,1.52
2022-11-17T07:06:47.112Z,1.58
2022-11-17T07:09:15.170Z,1.73
2022-11-17T07:11:43.531Z,1.80
2022-11-17T07:14:11.583Z,1.85
2022-11-17T07:16:42.849Z,1.77
2022-11-17T07:19:11.036Z,2.38
2022-11-17T07:21:39.418Z,1.70
2022-11-17T07:24:08.244Z,3.00
2022-11-17T07:26:36.683Z,2.53
2022-11-17T07:29:05.101Z,3.08
2022-11-17T07:31:35.720Z,3.55
2022-11-17T07:34:05.267Z,3.10
2022-11-17T07:36:34.659Z,3.22
2022-11-17T07:39:02.776Z,4.43
2022-11-17T07:41:32.204Z,3.72
2022-11-17T07:44:00.622Z,4.45
2022-11-17T07:46:29.087Z,4.22
2022-11-17T07:48:57.225Z,2.88
2022-11-17T07:51:26.572Z,3.55
2022-11-17T07:53:55.103Z,2.70
2022-11-17T07:56:23.166Z,4.70
2022-11-17T07:58:51.587Z,2.97
2022-11-17T08:01:19.724Z,2.72
2022-11-17T08:03:48.340Z,3.42
2022-11-17T08:06:16.997Z,2.92
2022-11-17T08:08:48.529Z,3.22
2022-11-17T08:11:16.759Z,2.20
2022-11-17T08:13:45.124Z,2.67
2022-11-17T08:16:13.542Z,3.72
2022-11-17T08:18:44.900Z,4.40
2022-11-17T08:21:16.137Z,5.13
2022-11-17T08:23:46.217Z,4.78
2022-11-17T08:26:14.465Z,4.25
2022-11-17T08:28:43.013Z,4.57
2022-11-17T08:31:11.130Z,5.13
2022-11-17T08:33:39.493Z,3.83
2022-11-17T08:36:08.307Z,2.72
2022-11-17T08:38:37.394Z,2.10
2022-11-17T08:41:08.965Z,2.63
2022-11-17T08:43:37.359Z,3.30
2022-11-17T08:46:06.069Z,4.40
2022-11-17T08:48:34.930Z,4.10
2022-11-17T08:51:06.379Z,4.93
2022-11-17T08:53:35.088Z,2.22
2022-11-17T08:56:03.197Z,4.97
2022-11-17T08:58:33.004Z,2.25
2022-11-17T09:01:05.285Z,6.00
2022-11-17T09:03:34.201Z,3.92
2022-11-17T09:06:03.050Z,3.22
2022-11-17T09:08:56.028Z,3.22
2022-11-17T09:11:20.282Z,4.93
2022-11-17T09:13:50.031Z,7.40
2022-11-17T09:16:19.604Z,2.70
2022-11-17T09:18:48.167Z,6.28
2022-11-17T09:21:17.326Z,5.28
2022-11-17T09:23:45.903Z,3.22
2022-11-17T09:26:14.863Z,3.10
2022-11-17T09:28:44.156Z,2.30
2022-11-17T09:31:15.305Z,2.60
2022-11-17T09:33:44.510Z,3.20
2022-11-17T09:36:13.699Z,3.47
2022-11-17T09:38:42.255Z,3.25
2022-11-17T09:41:22.674Z,3.15
2022-11-17T09:43:55.795Z,4.53
2022-11-17T09:46:29.118Z,2.30
2022-11-17T09:49:00.861Z,3.00
2022-11-17T09:51:31.080Z,3.67
2022-11-17T09:54:04.452Z,3.80
2022-11-17T09:56:32.798Z,4.18
2022-11-17T09:59:04.351Z,2.47
2022-11-17T10:01:33.862Z,3.00
2022-11-17T10:04:02.185Z,4.03
2022-11-17T10:06:32.031Z,4.13
2022-11-17T10:09:04.004Z,4.05
2022-11-17T10:11:35.040Z,4.22
2022-11-17T10:16:34.034Z,4.63
2022-11-17T10:19:03.391Z,4.80
2022-11-17T10:21:31.747Z,3.10
2022-11-17T10:24:00.644Z,3.72
2022-11-17T10:26:28.943Z,2.85
2022-11-17T10:29:08.711Z,3.35
2022-11-17T10:31:47.029Z,2.83
2022-11-17T10:34:36.979Z,2.40
2022-11-17T10:37:28.660Z,2.97
2022-11-17T10:40:25.114Z,2.50
2022-11-17T10:43:18.139Z,2.67
2022-11-17T10:45:47.067Z,3.95
2022-11-17T10:48:26.379Z,3.10
2022-11-17T10:50:56.307Z,2.95
2022-11-17T10:53:27.416Z,3.85
2022-11-17T10:58:26.970Z,2.83
2022-11-17T11:00:56.875Z,3.45
2022-11-17T11:03:29.034Z,5.30
2022-11-17T11:06:24.182Z,5.70
2022-11-17T11:08:56.657Z,6.18
2022-11-17T11:11:42.403Z,5.78
2022-11-17T11:14:17.255Z,4.30
2022-11-17T11:16:48.496Z,5.18
2022-11-17T11:19:20.585Z,4.10
2022-11-17T11:22:12.433Z,4.40
2022-11-17T11:24:46.779Z,4.47
2022-11-17T11:27:27.891Z,4.32
2022-11-17T11:30:03.201Z,4.85
2022-11-17T11:32:44.214Z,3.88
2022-11-17T11:35:56.310Z,5.53
2022-11-17T11:38:34.277Z,4.38
2022-11-17T11:41:13.169Z,4.75
2022-11-17T11:43:50.660Z,5.13
2022-11-17T11:46:20.085Z,4.15
2022-11-17T11:48:49.536Z,4.53
2022-11-17T11:51:20.474Z,4.65
2022-11-17T11:53:52.135Z,3.70
2022-11-17T11:58:54.563Z,5.57
2022-11-17T12:01:24.031Z,4.38
2022-11-17T12:03:59.593Z,5.63
2022-11-17T12:06:44.314Z,3.22
2022-11-17T12:09:25.317Z,5.90
2022-11-17T12:12:03.129Z,4.93
2022-11-17T12:14:33.237Z,3.58
2022-11-17T12:17:07.569Z,5.28
2022-11-17T12:19:55.418Z,6.50
2022-11-17T12:22:56.130Z,4.50
2022-11-17T12:25:29.402Z,4.40
2022-11-17T12:27:57.702Z,5.03
2022-11-17T12:30:51.791Z,6.38
2022-11-17T12:33:20.374Z,6.60
2022-11-17T12:36:31.134Z,5.57
2022-11-17T12:39:01.974Z,7.72
2022-11-17T12:42:05.366Z,7.35
2022-11-17T12:44:44.730Z,7.55
2022-11-17T12:47:16.296Z,7.65
2022-11-17T12:52:17.532Z,6.70
2022-11-17T12:54:57.580Z,4.50
2022-11-17T12:57:28.829Z,5.45
2022-11-17T13:00:10.200Z,4.25
2022-11-17T13:02:57.730Z,5.68
2022-11-17T13:05:27.340Z,4.53
2022-11-17T13:08:12.881Z,4.93
2022-11-17T13:10:42.924Z,6.10
2022-11-17T13:13:12.782Z,5.23
2022-11-17T13:15:42.455Z,5.32
2022-11-17T13:18:20.301Z,5.72
2022-11-17T13:20:49.862Z,6.70
2022-11-17T13:23:22.198Z,9.00
2022-11-17T13:25:52.117Z,5.20
2022-11-17T13:28:31.016Z,2.87
2022-11-17T13:31:00.393Z,3.45
2022-11-17T13:33:29.753Z,3.83
2022-11-17T13:36:09.491Z,3.80
2022-11-17T13:38:38.054Z,4.30
2022-11-17T13:41:07.931Z,4.38
2022-11-17T13:43:39.722Z,7.00
2022-11-17T13:46:08.159Z,6.50
2022-11-17T13:48:37.965Z,3.60
2022-11-17T13:51:23.066Z,4.07
2022-11-17T13:53:52.702Z,4.72
2022-11-17T13:56:27.575Z,5.72
2022-11-17T13:58:56.285Z,5.45
2022-11-17T14:01:28.604Z,7.07
2022-11-17T14:04:19.817Z,6.28
2022-11-17T14:07:00.682Z,4.68
2022-11-17T14:09:30.884Z,4.10
2022-11-17T14:12:00.504Z,4.97
2022-11-17T14:14:33.868Z,5.75
2022-11-17T14:17:12.443Z,6.10
2022-11-17T14:19:40.958Z,7.60
2022-11-17T14:22:30.926Z,7.85
2022-11-17T14:25:00.542Z,11.23
2022-11-17T14:27:41.435Z,6.22
2022-11-17T14:30:13.260Z,7.50
2022-11-17T14:32:41.439Z,6.68
2022-11-17T14:35:13.992Z,8.30
2022-11-17T14:37:42.716Z,10.43
2022-11-17T14:40:14.875Z,10.20
2022-11-17T14:42:44.695Z,10.80
2022-11-17T14:45:16.897Z,10.05
2022-11-17T14:47:45.336Z,8.27
2022-11-17T14:50:14.918Z,7.32
2022-11-17T14:52:43.861Z,5.95
2022-11-17T14:55:12.871Z,6.78
2022-11-17T14:57:41.412Z,6.63
2022-11-17T15:00:18.855Z,6.38
2022-11-17T15:02:48.807Z,7.00
2022-11-17T15:05:17.374Z,5.97
2022-11-17T15:07:45.478Z,7.13
2022-11-17T15:10:13.897Z,6.30
2022-11-17T15:12:42.063Z,5.88
2022-11-17T15:15:12.703Z,7.88
2022-11-17T15:17:40.818Z,6.75
2022-11-17T15:20:10.563Z,9.15
2022-11-17T15:22:39.952Z,10.77
2022-11-17T15:25:09.743Z,9.20
2022-11-17T15:27:37.892Z,7.28
2022-11-17T15:30:07.658Z,11.00
2022-11-17T15:32:37.615Z,7.90
2022-11-17T15:35:06.766Z,7.72
2022-11-17T15:37:34.848Z,6.07
2022-11-17T15:40:03.319Z,7.53
2022-11-17T15:42:31.467Z,8.20
2022-11-17T15:44:59.867Z,7.47
2022-11-17T15:47:27.926Z,6.30
2022-11-17T15:49:58.707Z,5.40
2022-11-17T15:52:48.768Z,8.57
2022-11-17T15:55:15.669Z,7.55
2022-11-17T15:57:43.824Z,4.85
2022-11-17T16:00:13.519Z,7.05
2022-11-17T16:02:42.167Z,7.72
2022-11-17T16:05:12.120Z,6.53
2022-11-17T16:07:40.339Z,7.70
2022-11-17T16:10:09.661Z,7.65
2022-11-17T16:12:37.809Z,7.35
2022-11-17T16:15:09.602Z,8.18
2022-11-17T16:17:37.808Z,8.68
2022-11-17T16:20:07.424Z,7.20
2022-11-17T16:22:37.096Z,13.73
2022-11-17T16:25:07.520Z,10.68
2022-11-17T16:27:35.842Z,6.82
2022-11-17T16:30:05.164Z,9.50
2022-11-17T16:32:33.363Z,8.45
2022-11-17T16:35:01.765Z,8.45
2022-11-17T16:37:30.022Z,9.48
2022-11-17T16:40:01.501Z,7.70
2022-11-17T16:42:29.859Z,12.20
2022-11-17T16:44:58.598Z,21.85
2022-11-17T16:47:26.718Z,13.77
2022-11-17T16:49:55.302Z,11.02
2022-11-17T16:52:23.599Z,9.02
2022-11-17T16:54:52.289Z,8.63
2022-11-17T16:57:22.028Z,11.07
2022-11-17T16:59:50.408Z,12.70
2022-11-17T17:02:18.589Z,11.77
2022-11-17T17:04:47.113Z,10.50
2022-11-17T17:07:15.437Z,14.63
2022-11-17T17:09:43.945Z,9.25
2022-11-17T17:12:12.341Z,11.15
2022-11-17T17:14:42.145Z,10.18
2022-11-17T17:17:10.301Z,12.57
2022-11-17T17:19:38.608Z,12.48
2022-11-17T17:22:07.023Z,13.13
2022-11-17T17:24:35.530Z,16.67
2022-11-17T17:27:05.146Z,15.77
2022-11-17T17:29:33.751Z,15.95
2022-11-17T17:32:03.869Z,17.20
2022-11-17T17:34:32.563Z,15.83
2022-11-17T17:37:01.099Z,11.88
2022-11-17T17:39:29.761Z,11.75
2022-11-17T17:41:58.122Z,11.65
2022-11-17T17:44:26.757Z,13.00
2022-11-17T17:46:57.403Z,14.45
2022-11-17T17:49:27.174Z,12.50
2022-11-17T17:51:55.593Z,11.85
2022-11-17T17:54:25.431Z,15.05
2022-11-17T17:56:54.033Z,10.07
2022-11-17T17:59:22.460Z,10.80
2022-11-17T18:01:51.565Z,10.75
2022-11-17T18:04:19.997Z,10.95
2022-11-17T18:06:49.691Z,13.43
2022-11-17T18:09:20.436Z,16.73
2022-11-17T18:11:50.573Z,13.07
2022-11-17T18:14:22.570Z,9.18
2022-11-17T18:16:51.158Z,10.57
2022-11-17T18:19:20.233Z,11.27
2022-11-17T18:21:49.776Z,12.65
2022-11-17T18:24:18.360Z,12.00
2022-11-17T18:26:46.591Z,12.05
2022-11-17T18:29:18.504Z,11.00
2022-11-17T18:31:47.751Z,8.82
2022-11-17T18:34:18.854Z,9.63
2022-11-17T18:36:47.073Z,10.63
2022-11-17T18:39:17.399Z,11.10
2022-11-17T18:41:45.840Z,10.67
2022-11-17T18:44:14.520Z,11.35
2022-11-17T18:46:42.755Z,12.95
2022-11-17T18:49:11.512Z,10.25
2022-11-17T18:51:39.765Z,12.05
2022-11-17T18:54:08.954Z,11.27
2022-11-17T18:56:39.020Z,9.77
2022-11-17T18:59:11.697Z,10.03
2022-11-17T19:01:45.406Z,9.73
2022-11-17T19:04:14.969Z,14.90
2022-11-17T19:06:43.234Z,11.93
2022-11-17T19:09:14.063Z,10.88
2022-11-17T19:11:43.878Z,11.10
2022-11-17T19:14:12.496Z,11.25
2022-11-17T19:16:44.949Z,11.73
2022-11-17T19:19:15.319Z,8.05
2022-11-17T19:21:44.278Z,12.75
2022-11-17T19:24:12.949Z,9.75
2022-11-17T19:26:41.156Z,9.30
2022-11-17T19:29:16.846Z,9.15
2022-11-17T19:31:46.085Z,8.38
2022-11-17T19:34:15.134Z,7.93
2022-11-17T19:36:44.618Z,8.70
2022-11-17T19:39:14.644Z,11.02
2022-11-17T19:41:47.889Z,11.50
2022-11-17T19:44:17.735Z,10.63
2022-11-17T19:46:45.898Z,12.27
2022-11-17T19:49:14.596Z,10.93
2022-11-17T19:51:43.137Z,10.18
2022-11-17T19:54:13.420Z,9.90
2022-11-17T19:56:41.680Z,9.73
2022-11-17T19:59:15.601Z,14.80
2022-11-17T20:01:46.890Z,13.98
2022-11-17T20:04:15.499Z,12.40
2022-11-17T20:06:43.762Z,14.30
2022-11-17T20:09:14.247Z,13.10
2022-11-17T20:11:42.866Z,12.02
2022-11-17T20:14:11.509Z,11.68
2022-11-17T20:16:39.589Z,16.45
2022-11-17T20:19:10.308Z,16.45
2022-11-17T20:21:38.457Z,12.52
2022-11-17T20:24:07.312Z,14.80
2022-11-17T20:26:36.361Z,17.42
2022-11-17T20:29:05.052Z,16.40
2022-11-17T20:31:35.372Z,18.00
2022-11-17T20:34:05.692Z,20.50
2022-11-17T20:36:35.741Z,17.23
2022-11-17T20:39:05.769Z,16.77
2022-11-17T20:41:34.088Z,16.30
2022-11-17T20:44:03.421Z,18.80
2022-11-17T20:46:32.002Z,14.90
2022-11-17T20:49:00.462Z,14.35
2022-11-17T20:51:28.611Z,13.07
2022-11-17T20:53:58.414Z,14.32
2022-11-17T20:56:26.620Z,12.32
2022-11-17T20:58:55.104Z,10.98
2022-11-17T21:01:24.178Z,10.88
2022-11-17T21:03:52.780Z,11.48
2022-11-17T21:06:23.162Z,9.75
2022-11-17T21:08:51.911Z,11.77
2022-11-17T21:11:40.920Z,10.60
2022-11-17T21:14:11.542Z,10.50
2022-11-17T21:16:41.444Z,10.90
2022-11-17T21:19:10.196Z,11.20
2022-11-17T21:21:38.404Z,8.75
2022-11-17T21:24:07.442Z,9.20
2022-11-17T21:26:37.267Z,9.27
2022-11-17T21:29:06.907Z,8.93
2022-11-17T21:31:35.753Z,9.52
2022-11-17T21:34:06.359Z,8.13
2022-11-17T21:36:35.654Z,8.88
2022-11-17T21:39:04.723Z,9.68
2022-11-17T21:41:35.433Z,9.05
2022-11-17T21:44:05.677Z,8.35
2022-11-17T21:46:35.113Z,8.85
2022-11-17T21:49:03.851Z,7.50
2022-11-17T21:51:33.460Z,9.95
2022-11-17T21:54:03.813Z,10.30
2022-11-17T21:56:32.280Z,8.60
2022-11-17T21:59:01.981Z,9.10
2022-11-17T22:01:32.166Z,10.00
2022-11-17T22:04:00.695Z,7.65
2022-11-17T22:06:28.949Z,8.48
2022-11-17T22:08:57.922Z,10.23
2022-11-17T22:11:37.047Z,10.57
2022-11-17T22:14:09.228Z,10.85
2022-11-17T22:16:39.991Z,9.57
2022-11-17T22:19:09.053Z,8.77
2022-11-17T22:21:37.869Z,9.38
2022-11-17T22:24:07.925Z,12.02
2022-11-17T22:26:38.369Z,11.55
2022-11-17T22:29:08.390Z,10.95
2022-11-17T22:31:38.196Z,9.27
2022-11-17T22:34:06.704Z,11.63
2022-11-17T22:36:34.807Z,12.20
2022-11-17T22:39:03.201Z,10.95
2022-11-17T22:41:31.457Z,8.52
2022-11-17T22:44:00.491Z,8.70
2022-11-17T22:46:29.765Z,8.88
2022-11-17T22:49:02.160Z,9.48
2022-11-17T22:51:47.967Z,10.23
2022-11-17T22:54:16.323Z,8.23
2022-11-17T22:56:44.579Z,9.38
2022-11-17T22:59:13.057Z,9.70
2022-11-17T23:01:41.266Z,10.18
2022-11-17T23:04:12.689Z,11.02
2022-11-17T23:06:40.779Z,12.85
2022-11-17T23:09:09.508Z,14.07
2022-11-17T23:11:38.635Z,13.27
2022-11-17T23:14:08.554Z,12.93
2022-11-17T23:16:36.848Z,11.90
2022-11-17T23:19:06.136Z,11.75
2022-11-17T23:21:35.533Z,11.93
2022-11-17T23:24:05.190Z,9.35
2022-11-17T23:26:33.323Z,9.27
2022-11-17T23:29:01.888Z,9.95
2022-11-17T23:31:30.383Z,9.93
2022-11-17T23:33:58.894Z,10.23
2022-11-17T23:36:26.869Z,9.70
2022-11-17T23:38:57.820Z,10.32
2022-11-17T23:41:25.936Z,9.48
2022-11-17T23:43:55.250Z,10.05
2022-11-17T23:46:25.069Z,10.25
2022-11-17T23:48:54.076Z,11.85
2022-11-17T23:51:23.483Z,11.77
2022-11-17T23:53:52.165Z,12.63
2022-11-17T23:56:21.630Z,10.95
2022-11-17T23:58:50.550Z,11.10
